createdAt,value
2023-02-11T00:01:36.564Z,24.31
2023-02-11T00:04:06.204Z,24.54
2023-02-11T00:06:35.704Z,24.62
2023-02-11T00:09:04.978Z,24.63
2023-02-11T00:11:33.858Z,24.63
2023-02-11T00:14:04.710Z,24.73
2023-02-11T00:16:33.711Z,24.75
2023-02-11T00:19:02.878Z,24.96
2023-02-11T00:21:31.804Z,24.97
2023-02-11T00:24:02.464Z,24.88
2023-02-11T00:26:34.168Z,25.16
2023-02-11T00:29:03.090Z,24.88
2023-02-11T00:31:34.232Z,25.03
2023-02-11T00:34:03.008Z,25.12
2023-02-11T00:36:32.018Z,25.13
2023-02-11T00:39:00.761Z,25.05
2023-02-11T00:41:30.201Z,24.98
2023-02-11T00:44:02.375Z,24.97
2023-02-11T00:46:31.265Z,25.03
2023-02-11T00:48:59.759Z,25.21
2023-02-11T00:51:29.037Z,25.32
2023-02-11T00:53:57.827Z,26.32
2023-02-11T00:56:27.022Z,25.53
2023-02-11T00:58:57.925Z,25.49
2023-02-11T01:01:26.883Z,25.64
2023-02-11T01:03:55.433Z,25.71
2023-02-11T01:06:25.574Z,25.45
2023-02-11T01:08:54.166Z,26.32
2023-02-11T01:11:23.135Z,25.98
2023-02-11T01:13:51.646Z,25.87
2023-02-11T01:16:20.834Z,25.71
2023-02-11T01:18:49.363Z,25.81
2023-02-11T01:21:19.716Z,26.76
2023-02-11T01:23:48.200Z,26.59
2023-02-11T01:26:17.036Z,26.12
2023-02-11T01:28:45.455Z,26.06
2023-02-11T01:31:14.652Z,26.11
2023-02-11T01:33:43.151Z,25.33
2023-02-11T01:36:12.116Z,26.67
2023-02-11T01:38:41.354Z,27.02
2023-02-11T01:41:12.076Z,25.89
2023-02-11T01:43:45.431Z,26.23
2023-02-11T01:46:14.478Z,25.68
2023-02-11T01:48:44.825Z,26.28
2023-02-11T01:51:17.577Z,26.29
2023-02-11T01:54:04.915Z,25.86
2023-02-11T01:56:52.667Z,25.48
2023-02-11T01:59:31.588Z,26.87
2023-02-11T02:02:03.828Z,25.78
2023-02-11T02:04:33.798Z,26.25
2023-02-11T02:07:15.031Z,26.53
2023-02-11T02:09:52.038Z,25.65
2023-02-11T02:12:21.387Z,26.17
2023-02-11T02:14:50.189Z,27.18
2023-02-11T02:17:32.845Z,26.56
2023-02-11T02:20:23.231Z,26.56
2023-02-11T02:23:10.865Z,27.47
2023-02-11T02:26:05.034Z,27.49
2023-02-11T02:28:56.359Z,26.91
2023-02-11T02:31:47.518Z,27.58
2023-02-11T02:34:20.415Z,26.96
2023-02-11T02:36:53.621Z,26.73
2023-02-11T02:39:27.361Z,26.92
2023-02-11T02:41:56.100Z,27.05
2023-02-11T02:44:25.124Z,26.76
2023-02-11T02:46:53.954Z,27.07
2023-02-11T02:49:22.984Z,27.06
2023-02-11T02:52:18.834Z,27.40
2023-02-11T02:55:02.912Z,27.48
2023-02-11T02:57:54.321Z,26.92
2023-02-11T03:00:44.589Z,27.15
2023-02-11T03:03:24.717Z,26.94
2023-02-11T03:06:07.765Z,27.55
2023-02-11T03:08:47.460Z,26.90
2023-02-11T03:11:17.657Z,26.68
2023-02-11T03:13:46.508Z,27.00
2023-02-11T03:16:23.782Z,26.82
2023-02-11T03:19:04.283Z,26.87
2023-02-11T03:21:33.316Z,26.77
2023-02-11T03:24:03.386Z,26.50
2023-02-11T03:26:41.438Z,26.54
2023-02-11T03:29:16.168Z,26.49
2023-02-11T03:32:05.765Z,26.79
2023-02-11T03:34:48.174Z,26.32
2023-02-11T03:37:35.230Z,26.65
2023-02-11T03:40:05.489Z,26.63
2023-02-11T03:42:37.885Z,26.30
2023-02-11T03:45:09.279Z,26.49
2023-02-11T03:47:40.660Z,26.38
2023-02-11T03:50:10.959Z,26.46
2023-02-11T03:52:40.336Z,26.68
2023-02-11T03:55:19.239Z,26.20
2023-02-11T03:57:48.724Z,26.38
2023-02-11T04:00:17.556Z,27.16
2023-02-11T04:02:46.563Z,27.03
2023-02-11T04:05:16.665Z,27.13
2023-02-11T04:07:45.655Z,26.88
2023-02-11T04:10:14.471Z,27.11
2023-02-11T04:12:43.772Z,26.22
2023-02-11T04:15:12.534Z,25.88
2023-02-11T04:17:41.653Z,25.71
2023-02-11T04:20:10.901Z,25.84
2023-02-11T04:22:40.305Z,25.68
2023-02-11T04:25:09.644Z,25.34
2023-02-11T04:27:38.766Z,25.33
2023-02-11T04:30:08.028Z,25.25
2023-02-11T04:32:37.184Z,25.05
2023-02-11T04:35:06.491Z,25.12
2023-02-11T04:37:35.928Z,24.99
2023-02-11T04:40:04.866Z,25.23
2023-02-11T04:42:33.661Z,25.09
2023-02-11T04:45:02.100Z,25.21
2023-02-11T04:47:30.874Z,25.16
2023-02-11T04:49:59.204Z,25.12
2023-02-11T04:52:27.941Z,25.05
2023-02-11T04:54:56.293Z,25.16
2023-02-11T04:57:25.002Z,25.08
2023-02-11T04:59:53.332Z,25.01
2023-02-11T05:02:22.067Z,25.12
2023-02-11T05:04:50.439Z,24.91
2023-02-11T05:07:19.162Z,25.14
2023-02-11T05:09:47.539Z,24.99
2023-02-11T05:12:16.524Z,25.63
2023-02-11T05:14:44.845Z,24.97
2023-02-11T05:17:13.431Z,24.69
2023-02-11T05:19:42.898Z,24.92
2023-02-11T05:22:11.665Z,24.73
2023-02-11T05:24:40.109Z,24.61
2023-02-11T05:27:08.729Z,24.44
2023-02-11T05:29:37.168Z,24.44
2023-02-11T05:32:07.480Z,24.39
2023-02-11T05:34:36.707Z,24.55
2023-02-11T05:37:05.514Z,24.21
2023-02-11T05:39:33.888Z,24.21
2023-02-11T05:42:02.569Z,24.22
2023-02-11T05:44:30.888Z,24.24
2023-02-11T05:46:59.558Z,24.15
2023-02-11T05:49:27.833Z,23.97
2023-02-11T05:51:56.480Z,24.05
2023-02-11T05:54:24.804Z,23.95
2023-02-11T05:56:54.028Z,23.83
2023-02-11T05:59:22.299Z,23.72
2023-02-11T06:01:50.970Z,23.69
2023-02-11T06:04:19.357Z,23.26
2023-02-11T06:06:48.159Z,23.71
2023-02-11T06:09:16.591Z,23.70
2023-02-11T06:11:45.240Z,23.08
2023-02-11T06:14:14.748Z,23.33
2023-02-11T06:16:43.414Z,23.29
2023-02-11T06:19:12.642Z,23.54
2023-02-11T06:21:44.067Z,23.39
2023-02-11T06:24:13.170Z,23.24
2023-02-11T06:26:41.753Z,23.40
2023-02-11T06:29:10.173Z,23.20
2023-02-11T06:31:39.652Z,23.00
2023-02-11T06:34:09.918Z,22.98
2023-02-11T06:36:41.721Z,22.98
2023-02-11T06:39:10.609Z,22.79
2023-02-11T06:41:39.375Z,22.92
2023-02-11T06:44:07.936Z,22.84
2023-02-11T06:46:36.718Z,23.00
2023-02-11T06:49:05.166Z,22.79
2023-02-11T06:51:33.878Z,22.74
2023-02-11T06:54:02.270Z,22.58
2023-02-11T06:56:30.995Z,22.68
2023-02-11T06:58:59.440Z,22.77
2023-02-11T07:01:28.526Z,22.93
2023-02-11T07:03:56.968Z,22.80
2023-02-11T07:06:28.295Z,23.07
2023-02-11T07:08:56.852Z,23.04
2023-02-11T07:11:28.038Z,23.09
2023-02-11T07:14:01.171Z,23.26
2023-02-11T07:16:29.998Z,23.30
2023-02-11T07:18:58.698Z,23.29
2023-02-11T07:21:27.497Z,23.45
2023-02-11T07:23:55.912Z,23.57
2023-02-11T07:26:26.007Z,23.59
2023-02-11T07:28:54.506Z,23.73
2023-02-11T07:31:26.476Z,23.69
2023-02-11T07:33:56.901Z,23.71
2023-02-11T07:36:26.353Z,23.67
2023-02-11T07:38:54.750Z,23.78
2023-02-11T07:41:24.942Z,23.86
2023-02-11T07:43:53.365Z,23.84
2023-02-11T07:46:25.244Z,23.82
2023-02-11T07:48:53.830Z,23.84
2023-02-11T07:51:28.294Z,23.77
2023-02-11T07:53:58.338Z,23.92
2023-02-11T07:56:27.516Z,23.93
2023-02-11T07:58:57.021Z,24.00
2023-02-11T08:01:28.624Z,23.95
2023-02-11T08:03:58.474Z,24.03
2023-02-11T08:06:30.528Z,24.09
2023-02-11T08:08:59.206Z,24.03
2023-02-11T08:11:28.988Z,23.92
2023-02-11T08:13:57.552Z,24.04
2023-02-11T08:16:34.776Z,24.06
2023-02-11T08:19:06.808Z,24.06
2023-02-11T08:21:35.518Z,24.11
2023-02-11T08:24:04.149Z,24.07
2023-02-11T08:26:35.117Z,24.18
2023-02-11T08:29:08.362Z,24.13
2023-02-11T08:31:40.483Z,24.22
2023-02-11T08:34:10.308Z,24.14
2023-02-11T08:36:39.713Z,24.03
2023-02-11T08:39:19.697Z,24.18
2023-02-11T08:41:51.425Z,23.84
2023-02-11T08:44:20.821Z,24.14
2023-02-11T08:46:50.197Z,24.24
2023-02-11T08:49:18.920Z,24.09
2023-02-11T08:51:47.732Z,24.02
2023-02-11T08:54:16.276Z,24.44
2023-02-11T08:56:45.040Z,24.01
2023-02-11T08:59:14.922Z,23.71
2023-02-11T09:01:44.661Z,23.84
2023-02-11T09:04:13.922Z,23.79
2023-02-11T09:06:42.648Z,23.61
2023-02-11T09:09:13.744Z,23.63
2023-02-11T09:11:43.391Z,23.62
2023-02-11T09:14:22.602Z,23.61
2023-02-11T09:16:52.056Z,23.13
2023-02-11T09:19:21.078Z,23.57
2023-02-11T09:21:49.836Z,23.50
2023-02-11T09:24:18.767Z,23.48
2023-02-11T09:26:47.473Z,23.62
2023-02-11T09:29:15.840Z,23.14
2023-02-11T09:31:44.697Z,23.21
2023-02-11T09:34:13.473Z,23.16
2023-02-11T09:36:42.534Z,23.19
2023-02-11T09:39:17.212Z,22.97
2023-02-11T09:42:07.899Z,23.52
2023-02-11T09:44:37.229Z,23.48
2023-02-11T09:47:28.788Z,23.46
2023-02-11T09:50:29.561Z,23.60
2023-02-11T09:53:25.979Z,23.78
2023-02-11T09:55:57.370Z,23.69
2023-02-11T09:58:35.341Z,23.86
2023-02-11T10:01:24.975Z,23.90
2023-02-11T10:04:50.139Z,23.84
2023-02-11T10:07:32.009Z,23.75
2023-02-11T10:10:28.260Z,23.87
2023-02-11T10:13:24.251Z,23.69
2023-02-11T10:16:06.759Z,23.54
2023-02-11T10:19:18.371Z,23.48
2023-02-11T10:22:07.396Z,23.36
2023-02-11T10:24:35.843Z,23.29
2023-02-11T10:27:16.990Z,23.26
2023-02-11T10:30:02.830Z,23.27
2023-02-11T10:32:33.530Z,23.14
2023-02-11T10:35:10.960Z,23.08
2023-02-11T10:37:39.810Z,23.19
2023-02-11T10:40:15.535Z,23.34
2023-02-11T10:42:48.682Z,23.40
2023-02-11T10:45:52.763Z,23.26
2023-02-11T10:48:44.155Z,23.24
2023-02-11T10:51:34.569Z,23.49
2023-02-11T10:54:13.831Z,23.47
2023-02-11T10:56:50.911Z,23.38
2023-02-11T10:59:22.490Z,23.40
2023-02-11T11:01:57.331Z,23.39
2023-02-11T11:04:35.764Z,23.14
2023-02-11T11:07:31.463Z,23.31
2023-02-11T11:10:12.153Z,23.19
2023-02-11T11:12:47.534Z,22.81
2023-02-11T11:15:28.185Z,22.82
2023-02-11T11:18:21.885Z,23.07
2023-02-11T11:21:02.133Z,22.86
2023-02-11T11:23:30.966Z,23.28
2023-02-11T11:26:11.333Z,23.20
2023-02-11T11:28:52.620Z,23.48
2023-02-11T11:31:28.655Z,23.45
2023-02-11T11:33:59.447Z,23.75
2023-02-11T11:36:37.251Z,23.65
2023-02-11T11:39:21.108Z,23.71
2023-02-11T11:41:58.221Z,24.01
2023-02-11T11:44:40.317Z,24.16
2023-02-11T11:47:08.994Z,24.42
2023-02-11T11:50:01.184Z,24.64
2023-02-11T11:52:34.742Z,24.54
2023-02-11T11:55:08.129Z,24.61
2023-02-11T11:57:38.832Z,24.59
2023-02-11T12:00:17.753Z,24.60
2023-02-11T12:03:09.964Z,24.41
2023-02-11T12:06:00.501Z,24.30
2023-02-11T12:09:01.284Z,24.43
2023-02-11T12:12:23.825Z,24.68
2023-02-11T12:15:13.863Z,24.35
2023-02-11T12:17:52.087Z,24.32
2023-02-11T12:20:56.179Z,24.40
2023-02-11T12:24:16.939Z,24.55
2023-02-11T12:27:33.094Z,24.58
2023-02-11T12:30:22.736Z,24.57
2023-02-11T12:33:17.000Z,24.92
2023-02-11T12:36:08.550Z,24.85
2023-02-11T12:39:03.899Z,25.05
2023-02-11T12:42:32.471Z,24.92
2023-02-11T12:45:16.418Z,25.31
2023-02-11T12:47:49.145Z,25.39
2023-02-11T12:50:38.828Z,25.45
2023-02-11T12:53:48.143Z,25.46
2023-02-11T12:56:40.673Z,25.28
2023-02-11T12:59:21.696Z,25.54
2023-02-11T13:01:50.447Z,25.67
2023-02-11T13:04:43.976Z,25.81
2023-02-11T13:07:48.968Z,25.60
2023-02-11T13:10:55.127Z,25.64
2023-02-11T13:13:33.369Z,25.82
2023-02-11T13:16:08.001Z,25.54
2023-02-11T13:19:01.916Z,25.88
2023-02-11T13:21:57.499Z,26.01
2023-02-11T13:24:44.813Z,25.84
2023-02-11T13:27:42.963Z,26.08
2023-02-11T13:30:35.700Z,26.03
2023-02-11T13:33:26.838Z,25.96
2023-02-11T13:35:58.285Z,26.02
2023-02-11T13:38:30.703Z,26.17
2023-02-11T13:41:21.313Z,25.95
2023-02-11T13:44:02.348Z,26.05
2023-02-11T13:47:06.201Z,26.03
2023-02-11T13:49:42.305Z,26.12
2023-02-11T13:52:23.717Z,26.25
2023-02-11T13:54:53.257Z,26.17
2023-02-11T13:57:21.834Z,26.26
2023-02-11T13:59:52.846Z,26.36
2023-02-11T14:02:54.936Z,26.38
2023-02-11T14:05:51.535Z,26.30
2023-02-11T14:08:43.297Z,26.45
2023-02-11T14:11:35.428Z,26.42
2023-02-11T14:14:33.726Z,26.09
2023-02-11T14:17:19.188Z,26.26
2023-02-11T14:19:49.590Z,26.31
2023-02-11T14:22:29.807Z,26.04
2023-02-11T14:25:01.260Z,26.06
2023-02-11T14:27:44.691Z,25.98
2023-02-11T14:30:24.379Z,25.94
2023-02-11T14:33:07.299Z,25.96
2023-02-11T14:36:00.364Z,25.80
2023-02-11T14:38:58.393Z,25.71
2023-02-11T14:41:46.419Z,25.60
2023-02-11T14:44:21.620Z,25.64
2023-02-11T14:46:52.759Z,25.74
2023-02-11T14:49:36.824Z,25.82
2023-02-11T14:52:30.509Z,25.60
2023-02-11T14:55:09.483Z,25.61
2023-02-11T14:57:38.200Z,25.52
2023-02-11T15:00:19.935Z,25.49
2023-02-11T15:02:49.117Z,25.43
2023-02-11T15:05:27.436Z,25.56
2023-02-11T15:08:02.150Z,25.72
2023-02-11T15:10:52.348Z,25.64
2023-02-11T15:13:23.220Z,25.71
2023-02-11T15:15:51.751Z,25.85
2023-02-11T15:18:24.561Z,25.92
2023-02-11T15:20:53.398Z,25.93
2023-02-11T15:23:25.711Z,25.94
2023-02-11T15:25:56.588Z,25.89
2023-02-11T15:28:33.565Z,26.05
2023-02-11T15:31:13.138Z,25.85
2023-02-11T15:33:41.986Z,25.79
2023-02-11T15:36:12.530Z,25.85
2023-02-11T15:38:41.396Z,25.89
2023-02-11T15:41:36.992Z,25.96
2023-02-11T15:44:05.720Z,25.79
2023-02-11T15:46:38.999Z,25.54
2023-02-11T15:49:16.480Z,25.53
2023-02-11T15:51:45.952Z,25.36
2023-02-11T15:54:27.223Z,25.27
2023-02-11T15:57:01.928Z,25.05
2023-02-11T15:59:36.092Z,24.92
2023-02-11T16:02:22.066Z,25.04
2023-02-11T16:04:56.964Z,24.99
2023-02-11T16:08:34.826Z,24.85
2023-02-11T16:11:09.162Z,24.87
2023-02-11T16:13:47.577Z,24.76
2023-02-11T16:16:33.809Z,24.73
2023-02-11T16:19:05.179Z,24.70
2023-02-11T16:21:39.555Z,24.77
2023-02-11T16:24:08.470Z,24.65
2023-02-11T16:26:41.283Z,24.56
2023-02-11T16:29:20.592Z,24.52
2023-02-11T16:31:50.557Z,24.64
2023-02-11T16:34:24.167Z,24.60
2023-02-11T16:36:53.037Z,24.42
2023-02-11T16:39:24.864Z,24.45
2023-02-11T16:41:53.816Z,24.34
2023-02-11T16:44:22.255Z,24.01
2023-02-11T16:46:52.463Z,24.04
2023-02-11T16:49:26.492Z,24.29
2023-02-11T16:51:59.005Z,24.52
2023-02-11T16:54:27.925Z,24.28
2023-02-11T16:56:56.777Z,24.46
2023-02-11T16:59:25.247Z,24.33
2023-02-11T17:01:54.309Z,24.30
2023-02-11T17:04:26.271Z,24.37
2023-02-11T17:06:57.988Z,24.38
2023-02-11T17:09:30.648Z,24.31
2023-02-11T17:12:00.432Z,24.43
2023-02-11T17:14:28.910Z,24.55
2023-02-11T17:16:57.831Z,24.41
2023-02-11T17:19:26.208Z,24.30
2023-02-11T17:21:55.275Z,24.49
2023-02-11T17:24:23.793Z,24.44
2023-02-11T17:26:52.784Z,24.15
2023-02-11T17:29:24.064Z,24.46
2023-02-11T17:31:53.480Z,24.11
2023-02-11T17:34:22.776Z,24.16
2023-02-11T17:36:52.100Z,24.09
2023-02-11T17:39:21.344Z,24.32
2023-02-11T17:41:50.299Z,24.12
2023-02-11T17:44:18.752Z,24.04
2023-02-11T17:46:47.618Z,24.13
2023-02-11T17:49:16.687Z,24.18
2023-02-11T17:51:45.834Z,24.15
2023-02-11T17:54:17.441Z,24.49
2023-02-11T17:56:46.461Z,24.39
2023-02-11T17:59:14.905Z,24.51
2023-02-11T18:01:44.231Z,24.50
2023-02-11T18:04:15.662Z,24.49
2023-02-11T18:06:44.733Z,24.67
2023-02-11T18:09:13.361Z,24.71
2023-02-11T18:11:42.312Z,24.92
2023-02-11T18:14:11.057Z,24.98
2023-02-11T18:16:43.210Z,25.06
2023-02-11T18:19:12.622Z,25.05
2023-02-11T18:21:41.796Z,24.79
2023-02-11T18:24:10.416Z,24.97
2023-02-11T18:26:39.219Z,24.83
2023-02-11T18:29:07.828Z,24.81
2023-02-11T18:31:36.743Z,24.82
2023-02-11T18:34:07.629Z,24.70
2023-02-11T18:36:36.938Z,24.46
2023-02-11T18:39:05.970Z,24.38
2023-02-11T18:41:35.240Z,24.31
2023-02-11T18:44:05.160Z,24.13
2023-02-11T18:46:59.533Z,24.07
2023-02-11T18:49:28.075Z,24.33
2023-02-11T18:51:58.797Z,24.25
2023-02-11T18:54:27.419Z,24.30
2023-02-11T18:56:56.284Z,24.33
2023-02-11T18:59:24.825Z,24.37
2023-02-11T19:01:53.602Z,24.79
2023-02-11T19:04:23.465Z,24.88
2023-02-11T19:06:52.513Z,25.10
2023-02-11T19:09:21.163Z,25.13
2023-02-11T19:11:50.590Z,24.95
2023-02-11T19:14:32.304Z,25.27
2023-02-11T19:17:04.094Z,25.46
2023-02-11T19:19:34.336Z,25.50
2023-02-11T19:22:03.926Z,25.51
2023-02-11T19:24:32.817Z,25.74
2023-02-11T19:27:03.437Z,25.71
2023-02-11T19:29:35.489Z,25.91
2023-02-11T19:32:06.186Z,25.70
2023-02-11T19:34:41.427Z,25.97
2023-02-11T19:37:12.941Z,25.91
2023-02-11T19:39:42.458Z,25.86
2023-02-11T19:42:12.376Z,25.72
2023-02-11T19:44:41.123Z,25.68
2023-02-11T19:47:10.714Z,25.56
2023-02-11T19:49:39.303Z,25.45
2023-02-11T19:52:08.303Z,25.44
2023-02-11T19:54:38.052Z,25.38
2023-02-11T19:57:06.975Z,25.21
2023-02-11T19:59:35.566Z,25.17
2023-02-11T20:02:04.572Z,25.22
2023-02-11T20:04:34.332Z,25.08
2023-02-11T20:07:03.273Z,25.18
2023-02-11T20:09:32.078Z,25.23
2023-02-11T20:12:01.041Z,25.26
2023-02-11T20:14:29.743Z,25.63
2023-02-11T20:16:58.704Z,25.39
2023-02-11T20:19:28.149Z,25.49
2023-02-11T20:21:57.190Z,25.54
2023-02-11T20:24:25.882Z,25.83
2023-02-11T20:26:56.191Z,25.61
2023-02-11T20:29:25.116Z,25.91
2023-02-11T20:31:54.664Z,25.95
2023-02-11T20:34:23.538Z,25.98
2023-02-11T20:36:52.999Z,25.93
2023-02-11T20:39:22.984Z,26.21
2023-02-11T20:41:52.545Z,26.33
2023-02-11T20:44:24.281Z,26.07
2023-02-11T20:46:54.579Z,25.78
2023-02-11T20:49:25.000Z,25.78
2023-02-11T20:51:54.421Z,25.74
2023-02-11T20:54:23.699Z,25.72
2023-02-11T20:56:54.109Z,25.45
2023-02-11T20:59:22.917Z,25.41
2023-02-11T21:01:54.337Z,25.35
2023-02-11T21:04:28.554Z,25.29
2023-02-11T21:07:00.380Z,25.36
2023-02-11T21:09:31.750Z,25.61
2023-02-11T21:12:01.196Z,25.64
2023-02-11T21:14:30.273Z,25.48
2023-02-11T21:16:59.296Z,25.34
2023-02-11T21:19:27.942Z,25.64
2023-02-11T21:21:57.570Z,25.64
2023-02-11T21:24:26.069Z,25.95
2023-02-11T21:26:55.132Z,25.88
2023-02-11T21:29:23.616Z,26.03
2023-02-11T21:31:52.862Z,25.90
2023-02-11T21:34:21.547Z,26.06
2023-02-11T21:36:51.521Z,26.22
2023-02-11T21:39:20.613Z,26.22
2023-02-11T21:41:49.588Z,26.10
2023-02-11T21:44:18.786Z,26.26
2023-02-11T21:46:47.821Z,26.24
2023-02-11T21:49:16.378Z,26.10
2023-02-11T21:51:45.266Z,26.25
2023-02-11T21:54:13.978Z,26.03
2023-02-11T21:56:42.816Z,25.88
2023-02-11T21:59:14.144Z,25.69
2023-02-11T22:01:43.026Z,25.94
2023-02-11T22:04:11.674Z,25.75
2023-02-11T22:06:40.509Z,25.57
2023-02-11T22:09:10.001Z,25.40
2023-02-11T22:11:38.882Z,25.64
2023-02-11T22:14:07.430Z,25.82
2023-02-11T22:16:36.682Z,25.75
2023-02-11T22:19:07.647Z,26.04
2023-02-11T22:21:36.598Z,26.11
2023-02-11T22:24:05.617Z,26.12
2023-02-11T22:26:34.621Z,26.09
2023-02-11T22:29:03.383Z,26.03
2023-02-11T22:31:33.922Z,26.41
2023-02-11T22:34:03.332Z,26.28
2023-02-11T22:36:38.303Z,26.38
2023-02-11T22:39:16.585Z,26.51
2023-02-11T22:41:46.189Z,26.51
2023-02-11T22:44:16.630Z,26.52
2023-02-11T22:46:45.548Z,26.62
2023-02-11T22:49:15.233Z,26.72
2023-02-11T22:51:44.283Z,26.65
2023-02-11T22:54:17.719Z,26.71
2023-02-11T22:56:49.826Z,26.84
2023-02-11T22:59:18.464Z,27.14
2023-02-11T23:01:47.496Z,26.80
2023-02-11T23:04:17.092Z,26.70
2023-02-11T23:06:47.778Z,27.02
2023-02-11T23:09:16.335Z,27.12
2023-02-11T23:11:45.277Z,27.15
2023-02-11T23:14:13.881Z,27.35
2023-02-11T23:16:43.007Z,27.18
2023-02-11T23:19:12.561Z,27.25
2023-02-11T23:21:41.540Z,27.16
2023-02-11T23:24:14.268Z,27.19
2023-02-11T23:26:43.260Z,27.05
2023-02-11T23:29:12.088Z,27.12
2023-02-11T23:31:44.132Z,27.11
2023-02-11T23:34:17.318Z,27.14
2023-02-11T23:36:46.186Z,27.18
2023-02-11T23:39:15.929Z,27.12
2023-02-11T23:41:45.685Z,27.10
2023-02-11T23:44:14.163Z,27.32
2023-02-11T23:46:43.049Z,27.13
2023-02-11T23:49:11.427Z,27.20
2023-02-11T23:51:40.061Z,27.19
2023-02-11T23:54:12.266Z,27.26
2023-02-11T23:56:42.550Z,27.25
2023-02-11T23:59:12.003Z,27.28
